sensor_id;sensor_type;location;lat;lon;timestamp;pressure;altitude;pressure_sealevel;temperature;humidity
59686;BME280;45554;51.096;16.976;2023-12-20T00:01:17;99642.11;;;5.94;87.17
59686;BME280;45554;51.096;16.976;2023-12-20T00:03:44;99642.92;;;5.95;87.50
59686;BME280;45554;51.096;16.976;2023-12-20T00:06:10;99639.98;;;5.95;86.69
59686;BME280;45554;51.096;16.976;2023-12-20T00:08:37;99643.41;;;5.96;87.04
59686;BME280;45554;51.096;16.976;2023-12-20T00:11:03;99632.74;;;5.97;87.75
59686;BME280;45554;51.096;16.976;2023-12-20T00:13:30;99623.34;;;5.98;87.20
59686;BME280;45554;51.096;16.976;2023-12-20T00:15:56;99624.04;;;5.98;86.87
59686;BME280;45554;51.096;16.976;2023-12-20T00:18:23;99626.60;;;5.99;86.96
59686;BME280;45554;51.096;16.976;2023-12-20T00:20:49;99629.23;;;5.98;86.92
59686;BME280;45554;51.096;16.976;2023-12-20T00:23:16;99629.39;;;5.98;86.93
59686;BME280;45554;51.096;16.976;2023-12-20T00:25:43;99631.70;;;5.98;87.07
59686;BME280;45554;51.096;16.976;2023-12-20T00:28:09;99631.52;;;5.97;87.39
59686;BME280;45554;51.096;16.976;2023-12-20T00:30:36;99628.91;;;5.97;87.35
59686;BME280;45554;51.096;16.976;2023-12-20T00:33:03;99628.25;;;5.97;87.76
59686;BME280;45554;51.096;16.976;2023-12-20T00:35:30;99628.48;;;5.95;88.22
59686;BME280;45554;51.096;16.976;2023-12-20T00:37:57;99624.25;;;5.93;88.13
59686;BME280;45554;51.096;16.976;2023-12-20T00:40:24;99626.89;;;5.92;88.12
59686;BME280;45554;51.096;16.976;2023-12-20T00:42:50;99623.34;;;5.90;88.22
59686;BME280;45554;51.096;16.976;2023-12-20T00:45:17;99625.36;;;5.88;87.90
59686;BME280;45554;51.096;16.976;2023-12-20T00:47:44;99620.44;;;5.85;88.74
59686;BME280;45554;51.096;16.976;2023-12-20T00:50:11;99619.98;;;5.84;89.42
59686;BME280;45554;51.096;16.976;2023-12-20T00:52:37;99620.64;;;5.81;89.81
59686;BME280;45554;51.096;16.976;2023-12-20T00:55:04;99616.19;;;5.80;89.62
59686;BME280;45554;51.096;16.976;2023-12-20T00:57:31;99613.68;;;5.77;89.58
59686;BME280;45554;51.096;16.976;2023-12-20T00:59:58;99612.51;;;5.76;90.51
59686;BME280;45554;51.096;16.976;2023-12-20T01:02:24;99612.30;;;5.73;90.46
59686;BME280;45554;51.096;16.976;2023-12-20T01:04:51;99610.31;;;5.71;91.09
59686;BME280;45554;51.096;16.976;2023-12-20T01:07:17;99607.40;;;5.70;90.81
59686;BME280;45554;51.096;16.976;2023-12-20T01:09:44;99607.52;;;5.67;90.94
59686;BME280;45554;51.096;16.976;2023-12-20T01:12:10;99602.95;;;5.65;91.36
59686;BME280;45554;51.096;16.976;2023-12-20T01:14:37;99604.52;;;5.64;91.36
59686;BME280;45554;51.096;16.976;2023-12-20T01:17:05;99602.84;;;5.63;92.19
59686;BME280;45554;51.096;16.976;2023-12-20T01:19:32;99602.52;;;5.62;91.52
59686;BME280;45554;51.096;16.976;2023-12-20T01:21:58;99612.32;;;5.61;91.70
59686;BME280;45554;51.096;16.976;2023-12-20T01:24:25;99611.41;;;5.61;91.91
59686;BME280;45554;51.096;16.976;2023-12-20T01:26:51;99604.38;;;5.60;92.46
59686;BME280;45554;51.096;16.976;2023-12-20T01:29:18;99600.73;;;5.59;92.60
59686;BME280;45554;51.096;16.976;2023-12-20T01:31:45;99599.03;;;5.58;93.82
59686;BME280;45554;51.096;16.976;2023-12-20T01:34:11;99600.12;;;5.58;93.20
59686;BME280;45554;51.096;16.976;2023-12-20T01:36:38;99595.73;;;5.55;92.92
59686;BME280;45554;51.096;16.976;2023-12-20T01:39:05;99588.89;;;5.53;93.53
59686;BME280;45554;51.096;16.976;2023-12-20T01:41:39;99595.67;;;5.52;93.52
59686;BME280;45554;51.096;16.976;2023-12-20T01:44:06;99584.98;;;5.50;93.85
59686;BME280;45554;51.096;16.976;2023-12-20T01:46:32;99585.30;;;5.51;94.50
59686;BME280;45554;51.096;16.976;2023-12-20T01:48:59;99579.44;;;5.50;94.14
59686;BME280;45554;51.096;16.976;2023-12-20T01:51:26;99579.62;;;5.49;94.49
59686;BME280;45554;51.096;16.976;2023-12-20T01:53:54;99568.67;;;5.49;94.87
59686;BME280;45554;51.096;16.976;2023-12-20T01:56:21;99567.15;;;5.48;95.75
59686;BME280;45554;51.096;16.976;2023-12-20T01:58:48;99563.09;;;5.50;96.45
59686;BME280;45554;51.096;16.976;2023-12-20T02:01:15;99558.59;;;5.49;96.85
59686;BME280;45554;51.096;16.976;2023-12-20T02:03:42;99565.41;;;5.48;96.47
59686;BME280;45554;51.096;16.976;2023-12-20T02:06:09;99553.90;;;5.49;97.09
59686;BME280;45554;51.096;16.976;2023-12-20T02:08:35;99549.73;;;5.49;97.19
59686;BME280;45554;51.096;16.976;2023-12-20T02:11:02;99548.33;;;5.49;97.00
59686;BME280;45554;51.096;16.976;2023-12-20T02:13:30;99554.58;;;5.50;96.88
59686;BME280;45554;51.096;16.976;2023-12-20T02:15:56;99557.67;;;5.50;97.16
59686;BME280;45554;51.096;16.976;2023-12-20T02:18:23;99554.19;;;5.50;97.15
59686;BME280;45554;51.096;16.976;2023-12-20T02:20:50;99550.16;;;5.52;96.61
59686;BME280;45554;51.096;16.976;2023-12-20T02:23:16;99553.27;;;5.52;97.08
59686;BME280;45554;51.096;16.976;2023-12-20T02:25:43;99544.54;;;5.53;97.02
59686;BME280;45554;51.096;16.976;2023-12-20T02:28:10;99547.15;;;5.53;96.92
59686;BME280;45554;51.096;16.976;2023-12-20T02:30:36;99552.75;;;5.56;96.91
59686;BME280;45554;51.096;16.976;2023-12-20T02:33:03;99550.11;;;5.56;96.52
59686;BME280;45554;51.096;16.976;2023-12-20T02:35:32;99550.77;;;5.57;96.78
59686;BME280;45554;51.096;16.976;2023-12-20T02:37:58;99552.46;;;5.58;96.70
59686;BME280;45554;51.096;16.976;2023-12-20T02:40:24;99545.73;;;5.57;96.76
59686;BME280;45554;51.096;16.976;2023-12-20T02:42:51;99538.94;;;5.58;96.54
59686;BME280;45554;51.096;16.976;2023-12-20T02:45:17;99544.55;;;5.56;96.86
59686;BME280;45554;51.096;16.976;2023-12-20T02:47:44;99545.13;;;5.55;96.66
59686;BME280;45554;51.096;16.976;2023-12-20T02:50:11;99531.48;;;5.53;96.37
59686;BME280;45554;51.096;16.976;2023-12-20T02:52:38;99522.56;;;5.51;96.25
59686;BME280;45554;51.096;16.976;2023-12-20T02:55:04;99532.69;;;5.49;96.93
59686;BME280;45554;51.096;16.976;2023-12-20T02:57:32;99530.91;;;5.47;96.59
59686;BME280;45554;51.096;16.976;2023-12-20T02:59:59;99523.05;;;5.44;96.80
59686;BME280;45554;51.096;16.976;2023-12-20T03:02:26;99524.44;;;5.40;97.21
59686;BME280;45554;51.096;16.976;2023-12-20T03:04:53;99515.03;;;5.37;96.86
59686;BME280;45554;51.096;16.976;2023-12-20T03:07:20;99517.20;;;5.35;97.15
59686;BME280;45554;51.096;16.976;2023-12-20T03:09:47;99517.30;;;5.33;96.51
59686;BME280;45554;51.096;16.976;2023-12-20T03:12:18;99519.61;;;5.32;96.76
59686;BME280;45554;51.096;16.976;2023-12-20T03:14:45;99518.61;;;5.30;96.87
59686;BME280;45554;51.096;16.976;2023-12-20T03:17:11;99520.27;;;5.28;96.45
59686;BME280;45554;51.096;16.976;2023-12-20T03:19:38;99523.63;;;5.27;96.48
59686;BME280;45554;51.096;16.976;2023-12-20T03:22:04;99531.70;;;5.26;96.43
59686;BME280;45554;51.096;16.976;2023-12-20T03:24:31;99521.70;;;5.24;96.23
59686;BME280;45554;51.096;16.976;2023-12-20T03:26:57;99523.18;;;5.22;96.63
59686;BME280;45554;51.096;16.976;2023-12-20T03:29:24;99518.76;;;5.19;96.72
59686;BME280;45554;51.096;16.976;2023-12-20T03:31:52;99518.66;;;5.18;96.68
59686;BME280;45554;51.096;16.976;2023-12-20T03:34:18;99519.80;;;5.15;97.05
59686;BME280;45554;51.096;16.976;2023-12-20T03:36:45;99515.04;;;5.13;97.00
59686;BME280;45554;51.096;16.976;2023-12-20T03:39:14;99520.02;;;5.11;97.03
59686;BME280;45554;51.096;16.976;2023-12-20T03:41:41;99523.08;;;5.08;96.93
59686;BME280;45554;51.096;16.976;2023-12-20T03:44:07;99531.53;;;5.05;97.33
59686;BME280;45554;51.096;16.976;2023-12-20T03:46:34;99531.80;;;5.03;97.13
59686;BME280;45554;51.096;16.976;2023-12-20T03:49:01;99527.56;;;5.01;97.40
59686;BME280;45554;51.096;16.976;2023-12-20T03:51:30;99530.31;;;4.98;96.79
59686;BME280;45554;51.096;16.976;2023-12-20T03:53:57;99527.52;;;4.94;97.60
59686;BME280;45554;51.096;16.976;2023-12-20T03:56:23;99531.33;;;4.90;97.64
59686;BME280;45554;51.096;16.976;2023-12-20T03:58:50;99535.57;;;4.88;97.61
59686;BME280;45554;51.096;16.976;2023-12-20T04:01:16;99529.83;;;4.85;97.22
59686;BME280;45554;51.096;16.976;2023-12-20T04:03:43;99527.19;;;4.81;97.67
59686;BME280;45554;51.096;16.976;2023-12-20T04:06:16;99525.25;;;4.78;97.95
59686;BME280;45554;51.096;16.976;2023-12-20T04:08:44;99523.79;;;4.76;98.47
59686;BME280;45554;51.096;16.976;2023-12-20T04:11:19;99526.70;;;4.73;98.42
59686;BME280;45554;51.096;16.976;2023-12-20T04:13:46;99529.92;;;4.70;98.85
59686;BME280;45554;51.096;16.976;2023-12-20T04:16:13;99532.95;;;4.69;98.79
59686;BME280;45554;51.096;16.976;2023-12-20T04:18:56;99532.88;;;4.66;99.05
59686;BME280;45554;51.096;16.976;2023-12-20T04:21:23;99526.23;;;4.63;98.97
59686;BME280;45554;51.096;16.976;2023-12-20T04:23:52;99525.10;;;4.61;99.54
59686;BME280;45554;51.096;16.976;2023-12-20T04:26:23;99527.30;;;4.58;99.86
59686;BME280;45554;51.096;16.976;2023-12-20T04:28:58;99525.70;;;4.55;99.81
59686;BME280;45554;51.096;16.976;2023-12-20T04:31:29;99531.14;;;4.53;99.92
59686;BME280;45554;51.096;16.976;2023-12-20T04:33:56;99529.96;;;4.48;100.00
59686;BME280;45554;51.096;16.976;2023-12-20T04:36:22;99531.00;;;4.44;100.00
59686;BME280;45554;51.096;16.976;2023-12-20T04:38:49;99530.86;;;4.39;100.00
59686;BME280;45554;51.096;16.976;2023-12-20T04:41:16;99529.34;;;4.34;100.00
59686;BME280;45554;51.096;16.976;2023-12-20T04:43:45;99528.12;;;4.30;100.00
59686;BME280;45554;51.096;16.976;2023-12-20T04:46:11;99531.95;;;4.25;100.00
59686;BME280;45554;51.096;16.976;2023-12-20T04:48:38;99518.31;;;4.20;100.00
59686;BME280;45554;51.096;16.976;2023-12-20T04:51:05;99518.42;;;4.17;100.00
59686;BME280;45554;51.096;16.976;2023-12-20T04:53:32;99515.18;;;4.16;100.00
59686;BME280;45554;51.096;16.976;2023-12-20T04:55:58;99511.46;;;4.13;100.00
59686;BME280;45554;51.096;16.976;2023-12-20T04:58:25;99508.71;;;4.12;100.00
59686;BME280;45554;51.096;16.976;2023-12-20T05:00:51;99508.42;;;4.11;100.00
59686;BME280;45554;51.096;16.976;2023-12-20T05:03:18;99510.36;;;4.10;100.00
59686;BME280;45554;51.096;16.976;2023-12-20T05:05:45;99501.73;;;4.09;100.00
59686;BME280;45554;51.096;16.976;2023-12-20T05:08:11;99500.50;;;4.10;100.00
59686;BME280;45554;51.096;16.976;2023-12-20T05:10:38;99498.59;;;4.10;100.00
59686;BME280;45554;51.096;16.976;2023-12-20T05:13:06;99503.30;;;4.09;100.00
59686;BME280;45554;51.096;16.976;2023-12-20T05:15:34;99504.00;;;4.09;100.00
59686;BME280;45554;51.096;16.976;2023-12-20T05:18:00;99501.22;;;4.09;100.00
59686;BME280;45554;51.096;16.976;2023-12-20T05:20:27;99504.88;;;4.09;100.00
59686;BME280;45554;51.096;16.976;2023-12-20T05:22:53;99511.11;;;4.09;100.00
59686;BME280;45554;51.096;16.976;2023-12-20T05:25:20;99501.45;;;4.07;100.00
59686;BME280;45554;51.096;16.976;2023-12-20T05:27:47;99510.81;;;4.07;100.00
59686;BME280;45554;51.096;16.976;2023-12-20T05:30:14;99507.71;;;4.07;100.00
59686;BME280;45554;51.096;16.976;2023-12-20T05:32:40;99508.21;;;4.08;100.00
59686;BME280;45554;51.096;16.976;2023-12-20T05:35:07;99513.23;;;4.08;100.00
59686;BME280;45554;51.096;16.976;2023-12-20T05:37:34;99516.83;;;4.09;100.00
59686;BME280;45554;51.096;16.976;2023-12-20T05:40:01;99516.27;;;4.10;100.00
59686;BME280;45554;51.096;16.976;2023-12-20T05:42:27;99516.27;;;4.10;100.00
59686;BME280;45554;51.096;16.976;2023-12-20T05:44:54;99516.27;;;4.10;100.00
59686;BME280;45554;51.096;16.976;2023-12-20T05:47:24;99525.42;;;4.11;100.00
59686;BME280;45554;51.096;16.976;2023-12-20T05:49:51;99516.55;;;4.11;100.00
59686;BME280;45554;51.096;16.976;2023-12-20T05:52:17;99517.01;;;4.13;100.00
59686;BME280;45554;51.096;16.976;2023-12-20T05:54:46;99516.27;;;4.14;100.00
59686;BME280;45554;51.096;16.976;2023-12-20T05:57:13;99518.31;;;4.15;100.00
59686;BME280;45554;51.096;16.976;2023-12-20T05:59:39;99517.92;;;4.16;100.00
59686;BME280;45554;51.096;16.976;2023-12-20T06:02:05;99512.54;;;4.17;100.00
59686;BME280;45554;51.096;16.976;2023-12-20T06:04:32;99519.75;;;4.18;100.00
59686;BME280;45554;51.096;16.976;2023-12-20T06:06:59;99514.69;;;4.19;100.00
59686;BME280;45554;51.096;16.976;2023-12-20T06:09:28;99514.47;;;4.20;100.00
59686;BME280;45554;51.096;16.976;2023-12-20T06:11:58;99508.57;;;4.20;100.00
59686;BME280;45554;51.096;16.976;2023-12-20T06:14:27;99511.56;;;4.19;100.00
59686;BME280;45554;51.096;16.976;2023-12-20T06:16:54;99509.44;;;4.20;100.00
59686;BME280;45554;51.096;16.976;2023-12-20T06:19:20;99521.23;;;4.20;100.00
59686;BME280;45554;51.096;16.976;2023-12-20T06:22:03;99515.02;;;4.20;100.00
59686;BME280;45554;51.096;16.976;2023-12-20T06:24:55;99511.14;;;4.17;100.00
59686;BME280;45554;51.096;16.976;2023-12-20T06:27:38;99512.12;;;4.14;100.00
59686;BME280;45554;51.096;16.976;2023-12-20T06:30:08;99514.70;;;4.15;100.00
59686;BME280;45554;51.096;16.976;2023-12-20T06:32:38;99513.36;;;4.13;100.00
59686;BME280;45554;51.096;16.976;2023-12-20T06:35:05;99514.59;;;4.13;100.00
59686;BME280;45554;51.096;16.976;2023-12-20T06:37:33;99513.21;;;4.13;100.00
59686;BME280;45554;51.096;16.976;2023-12-20T06:40:00;99518.06;;;4.13;100.00
59686;BME280;45554;51.096;16.976;2023-12-20T06:42:26;99520.64;;;4.14;100.00
59686;BME280;45554;51.096;16.976;2023-12-20T06:44:53;99515.79;;;4.13;100.00
59686;BME280;45554;51.096;16.976;2023-12-20T06:47:20;99514.95;;;4.13;100.00
59686;BME280;45554;51.096;16.976;2023-12-20T06:49:46;99520.62;;;4.14;100.00
59686;BME280;45554;51.096;16.976;2023-12-20T06:52:22;99527.90;;;4.14;100.00
59686;BME280;45554;51.096;16.976;2023-12-20T06:54:49;99523.41;;;4.14;100.00
59686;BME280;45554;51.096;16.976;2023-12-20T06:57:15;99526.49;;;4.15;100.00
59686;BME280;45554;51.096;16.976;2023-12-20T07:06:09;99528.64;;;4.13;100.00
59686;BME280;45554;51.096;16.976;2023-12-20T07:08:35;99531.02;;;4.14;100.00
59686;BME280;45554;51.096;16.976;2023-12-20T07:15:55;99533.30;;;4.14;100.00
59686;BME280;45554;51.096;16.976;2023-12-20T07:19:41;99536.55;;;4.15;100.00
59686;BME280;45554;51.096;16.976;2023-12-20T07:22:09;99536.73;;;4.14;100.00
59686;BME280;45554;51.096;16.976;2023-12-20T07:25:09;99545.42;;;4.14;100.00
59686;BME280;45554;51.096;16.976;2023-12-20T07:27:37;99544.59;;;4.13;100.00
59686;BME280;45554;51.096;16.976;2023-12-20T07:30:57;99552.23;;;4.12;100.00
59686;BME280;45554;51.096;16.976;2023-12-20T07:33:23;99547.00;;;4.14;100.00
59686;BME280;45554;51.096;16.976;2023-12-20T07:35:50;99550.96;;;4.14;100.00
59686;BME280;45554;51.096;16.976;2023-12-20T07:38:18;99554.63;;;4.14;100.00
59686;BME280;45554;51.096;16.976;2023-12-20T07:40:44;99548.94;;;4.12;100.00
59686;BME280;45554;51.096;16.976;2023-12-20T07:43:11;99553.81;;;4.12;100.00
59686;BME280;45554;51.096;16.976;2023-12-20T07:45:37;99546.23;;;4.10;100.00
59686;BME280;45554;51.096;16.976;2023-12-20T07:48:06;99548.71;;;4.10;100.00
59686;BME280;45554;51.096;16.976;2023-12-20T07:54:04;99547.37;;;4.08;100.00
59686;BME280;45554;51.096;16.976;2023-12-20T07:56:38;99543.20;;;4.08;100.00
59686;BME280;45554;51.096;16.976;2023-12-20T07:59:06;99547.15;;;4.10;100.00
59686;BME280;45554;51.096;16.976;2023-12-20T08:01:48;99550.79;;;4.10;100.00
59686;BME280;45554;51.096;16.976;2023-12-20T08:04:15;99555.23;;;4.11;100.00
59686;BME280;45554;51.096;16.976;2023-12-20T08:06:42;99552.06;;;4.12;100.00
59686;BME280;45554;51.096;16.976;2023-12-20T08:09:08;99551.88;;;4.13;100.00
59686;BME280;45554;51.096;16.976;2023-12-20T08:11:38;99554.96;;;4.14;100.00
59686;BME280;45554;51.096;16.976;2023-12-20T08:14:07;99557.02;;;4.14;100.00
59686;BME280;45554;51.096;16.976;2023-12-20T08:16:33;99558.77;;;4.14;100.00
59686;BME280;45554;51.096;16.976;2023-12-20T08:19:00;99555.54;;;4.17;100.00
59686;BME280;45554;51.096;16.976;2023-12-20T08:21:27;99546.77;;;4.15;100.00
59686;BME280;45554;51.096;16.976;2023-12-20T08:23:54;99560.11;;;4.19;100.00
59686;BME280;45554;51.096;16.976;2023-12-20T08:26:28;99571.28;;;4.22;100.00
59686;BME280;45554;51.096;16.976;2023-12-20T08:28:55;99560.87;;;4.22;100.00
59686;BME280;45554;51.096;16.976;2023-12-20T08:31:27;99565.50;;;4.23;100.00
59686;BME280;45554;51.096;16.976;2023-12-20T08:33:53;99559.25;;;4.23;100.00
59686;BME280;45554;51.096;16.976;2023-12-20T08:36:20;99566.64;;;4.25;100.00
59686;BME280;45554;51.096;16.976;2023-12-20T08:38:51;99570.26;;;4.26;100.00
59686;BME280;45554;51.096;16.976;2023-12-20T08:41:18;99561.70;;;4.28;100.00
59686;BME280;45554;51.096;16.976;2023-12-20T08:43:44;99568.62;;;4.28;100.00
59686;BME280;45554;51.096;16.976;2023-12-20T08:46:11;99573.16;;;4.27;100.00
59686;BME280;45554;51.096;16.976;2023-12-20T08:48:38;99580.41;;;4.28;100.00
59686;BME280;45554;51.096;16.976;2023-12-20T08:51:05;99579.10;;;4.26;100.00
59686;BME280;45554;51.096;16.976;2023-12-20T08:53:36;99588.10;;;4.27;100.00
59686;BME280;45554;51.096;16.976;2023-12-20T08:56:03;99577.38;;;4.26;100.00
59686;BME280;45554;51.096;16.976;2023-12-20T08:58:29;99567.61;;;4.18;100.00
59686;BME280;45554;51.096;16.976;2023-12-20T09:00:56;99575.31;;;4.25;100.00
59686;BME280;45554;51.096;16.976;2023-12-20T09:03:23;99580.08;;;4.28;100.00
59686;BME280;45554;51.096;16.976;2023-12-20T09:05:50;99585.05;;;4.30;100.00
59686;BME280;45554;51.096;16.976;2023-12-20T09:08:17;99579.80;;;4.31;100.00
59686;BME280;45554;51.096;16.976;2023-12-20T09:10:48;99582.60;;;4.30;100.00
59686;BME280;45554;51.096;16.976;2023-12-20T09:13:17;99587.11;;;4.30;100.00
59686;BME280;45554;51.096;16.976;2023-12-20T09:15:45;99593.02;;;4.30;100.00
59686;BME280;45554;51.096;16.976;2023-12-20T09:18:12;99581.52;;;4.31;100.00
59686;BME280;45554;51.096;16.976;2023-12-20T09:20:38;99593.48;;;4.31;100.00
59686;BME280;45554;51.096;16.976;2023-12-20T09:23:10;99583.46;;;4.34;100.00
59686;BME280;45554;51.096;16.976;2023-12-20T09:25:40;99587.04;;;4.36;99.97
59686;BME280;45554;51.096;16.976;2023-12-20T09:28:07;99588.83;;;4.39;99.94
59686;BME280;45554;51.096;16.976;2023-12-20T09:30:33;99583.69;;;4.42;99.78
59686;BME280;45554;51.096;16.976;2023-12-20T09:33:02;99583.85;;;4.46;99.63
59686;BME280;45554;51.096;16.976;2023-12-20T09:35:28;99591.36;;;4.49;99.29
59686;BME280;45554;51.096;16.976;2023-12-20T09:37:56;99594.08;;;4.55;98.57
59686;BME280;45554;51.096;16.976;2023-12-20T09:40:22;99598.92;;;4.60;98.38
59686;BME280;45554;51.096;16.976;2023-12-20T09:45:20;99592.82;;;4.69;97.97
59686;BME280;45554;51.096;16.976;2023-12-20T09:47:50;99586.38;;;4.73;97.36
59686;BME280;45554;51.096;16.976;2023-12-20T09:50:19;99581.48;;;4.78;97.26
59686;BME280;45554;51.096;16.976;2023-12-20T09:52:50;99577.09;;;4.84;96.57
59686;BME280;45554;51.096;16.976;2023-12-20T09:55:20;99570.91;;;4.90;96.61
59686;BME280;45554;51.096;16.976;2023-12-20T09:57:49;99580.96;;;4.95;95.55
59686;BME280;45554;51.096;16.976;2023-12-20T10:00:18;99582.80;;;4.97;94.58
59686;BME280;45554;51.096;16.976;2023-12-20T10:02:56;99574.39;;;4.98;94.36
59686;BME280;45554;51.096;16.976;2023-12-20T10:05:31;99574.04;;;4.99;94.32
59686;BME280;45554;51.096;16.976;2023-12-20T10:08:24;99578.23;;;5.02;93.38
59686;BME280;45554;51.096;16.976;2023-12-20T10:11:07;99567.57;;;5.04;93.35
59686;BME280;45554;51.096;16.976;2023-12-20T10:13:34;99571.08;;;5.06;93.35
59686;BME280;45554;51.096;16.976;2023-12-20T10:17:03;99582.02;;;5.11;92.58
59686;BME280;45554;51.096;16.976;2023-12-20T10:19:31;99570.89;;;5.11;91.44
59686;BME280;45554;51.096;16.976;2023-12-20T10:25:14;99565.66;;;5.12;91.12
59686;BME280;45554;51.096;16.976;2023-12-20T10:28:14;99562.37;;;5.11;90.78
59686;BME280;45554;51.096;16.976;2023-12-20T10:30:43;99567.88;;;5.13;89.83
59686;BME280;45554;51.096;16.976;2023-12-20T10:33:10;99561.89;;;5.14;89.80
59686;BME280;45554;51.096;16.976;2023-12-20T10:35:38;99564.72;;;5.17;89.74
59686;BME280;45554;51.096;16.976;2023-12-20T10:38:09;99574.27;;;5.18;89.20
59686;BME280;45554;51.096;16.976;2023-12-20T10:40:36;99566.45;;;5.17;89.31
59686;BME280;45554;51.096;16.976;2023-12-20T10:43:04;99567.70;;;5.16;88.67
59686;BME280;45554;51.096;16.976;2023-12-20T10:45:31;99566.15;;;5.16;89.21
59686;BME280;45554;51.096;16.976;2023-12-20T10:47:58;99560.38;;;5.17;88.34
59686;BME280;45554;51.096;16.976;2023-12-20T10:50:26;99560.73;;;5.21;88.61
59686;BME280;45554;51.096;16.976;2023-12-20T10:52:54;99561.16;;;5.23;87.99
59686;BME280;45554;51.096;16.976;2023-12-20T10:55:25;99556.31;;;5.30;88.09
59686;BME280;45554;51.096;16.976;2023-12-20T10:58:01;99556.52;;;5.42;87.93
59686;BME280;45554;51.096;16.976;2023-12-20T11:00:29;99553.10;;;5.52;86.58
59686;BME280;45554;51.096;16.976;2023-12-20T11:03:01;99540.84;;;5.58;85.48
59686;BME280;45554;51.096;16.976;2023-12-20T11:05:41;99538.86;;;5.59;85.32
59686;BME280;45554;51.096;16.976;2023-12-20T11:08:13;99535.59;;;5.58;85.00
59686;BME280;45554;51.096;16.976;2023-12-20T11:10:59;99528.52;;;5.57;85.32
59686;BME280;45554;51.096;16.976;2023-12-20T11:13:31;99529.31;;;5.55;85.13
59686;BME280;45554;51.096;16.976;2023-12-20T11:15:59;99523.31;;;5.57;85.33
59686;BME280;45554;51.096;16.976;2023-12-20T11:18:29;99532.70;;;5.61;84.83
59686;BME280;45554;51.096;16.976;2023-12-20T11:21:00;99516.15;;;5.69;84.53
59686;BME280;45554;51.096;16.976;2023-12-20T11:23:46;99512.51;;;5.84;84.14
59686;BME280;45554;51.096;16.976;2023-12-20T11:26:15;99512.67;;;5.99;83.99
59686;BME280;45554;51.096;16.976;2023-12-20T11:28:42;99517.63;;;6.15;83.15
59686;BME280;45554;51.096;16.976;2023-12-20T11:31:08;99502.86;;;6.33;82.05
59686;BME280;45554;51.096;16.976;2023-12-20T11:33:40;99511.08;;;6.43;78.91
59686;BME280;45554;51.096;16.976;2023-12-20T11:36:17;99500.08;;;6.51;78.13
59686;BME280;45554;51.096;16.976;2023-12-20T11:38:56;99499.73;;;6.54;76.96
59686;BME280;45554;51.096;16.976;2023-12-20T11:41:23;99496.98;;;6.53;76.36
59686;BME280;45554;51.096;16.976;2023-12-20T11:43:53;99481.95;;;6.54;76.23
59686;BME280;45554;51.096;16.976;2023-12-20T11:46:20;99480.58;;;6.57;76.28
59686;BME280;45554;51.096;16.976;2023-12-20T11:48:47;99489.31;;;6.60;75.74
59686;BME280;45554;51.096;16.976;2023-12-20T11:51:14;99474.29;;;6.61;75.96
59686;BME280;45554;51.096;16.976;2023-12-20T11:53:41;99472.63;;;6.63;75.81
59686;BME280;45554;51.096;16.976;2023-12-20T11:56:13;99460.19;;;6.64;75.65
59686;BME280;45554;51.096;16.976;2023-12-20T11:59:32;99461.77;;;6.68;76.34
59686;BME280;45554;51.096;16.976;2023-12-20T12:01:59;99462.71;;;6.69;75.87
59686;BME280;45554;51.096;16.976;2023-12-20T12:04:27;99453.77;;;6.74;75.16
59686;BME280;45554;51.096;16.976;2023-12-20T12:10:09;99439.45;;;6.72;75.63
59686;BME280;45554;51.096;16.976;2023-12-20T12:12:36;99436.09;;;6.69;75.78
59686;BME280;45554;51.096;16.976;2023-12-20T12:15:06;99435.44;;;6.65;75.21
59686;BME280;45554;51.096;16.976;2023-12-20T12:17:54;99426.94;;;6.61;75.27
59686;BME280;45554;51.096;16.976;2023-12-20T12:20:22;99429.21;;;6.57;74.76
59686;BME280;45554;51.096;16.976;2023-12-20T12:23:03;99428.41;;;6.53;74.70
59686;BME280;45554;51.096;16.976;2023-12-20T12:25:30;99423.58;;;6.49;74.49
59686;BME280;45554;51.096;16.976;2023-12-20T12:27:58;99418.58;;;6.44;74.47
59686;BME280;45554;51.096;16.976;2023-12-20T12:30:24;99418.05;;;6.41;74.30
59686;BME280;45554;51.096;16.976;2023-12-20T12:32:56;99422.46;;;6.40;74.28
59686;BME280;45554;51.096;16.976;2023-12-20T12:35:25;99417.66;;;6.38;74.65
59686;BME280;45554;51.096;16.976;2023-12-20T12:37:51;99420.70;;;6.37;73.68
59686;BME280;45554;51.096;16.976;2023-12-20T12:40:18;99418.32;;;6.36;73.35
59686;BME280;45554;51.096;16.976;2023-12-20T12:43:18;99415.04;;;6.35;73.37
59686;BME280;45554;51.096;16.976;2023-12-20T12:45:47;99417.19;;;6.34;73.14
59686;BME280;45554;51.096;16.976;2023-12-20T12:48:18;99408.42;;;6.32;73.65
59686;BME280;45554;51.096;16.976;2023-12-20T12:52:09;99411.19;;;6.32;74.29
59686;BME280;45554;51.096;16.976;2023-12-20T12:55:06;99418.27;;;6.26;73.88
59686;BME280;45554;51.096;16.976;2023-12-20T12:57:35;99434.08;;;6.23;73.58
59686;BME280;45554;51.096;16.976;2023-12-20T13:00:07;99418.13;;;6.22;73.67
59686;BME280;45554;51.096;16.976;2023-12-20T13:03:53;99417.05;;;6.23;73.87
59686;BME280;45554;51.096;16.976;2023-12-20T13:09:35;99416.56;;;6.26;73.60
59686;BME280;45554;51.096;16.976;2023-12-20T13:12:29;99416.33;;;6.27;73.41
59686;BME280;45554;51.096;16.976;2023-12-20T13:15:01;99405.48;;;6.28;73.74
59686;BME280;45554;51.096;16.976;2023-12-20T13:18:04;99401.09;;;6.29;74.14
59686;BME280;45554;51.096;16.976;2023-12-20T13:20:34;99401.62;;;6.29;74.04
59686;BME280;45554;51.096;16.976;2023-12-20T13:23:26;99402.73;;;6.27;73.99
59686;BME280;45554;51.096;16.976;2023-12-20T13:27:06;99403.52;;;6.26;73.75
59686;BME280;45554;51.096;16.976;2023-12-20T13:29:49;99402.88;;;6.24;73.47
59686;BME280;45554;51.096;16.976;2023-12-20T13:32:17;99398.14;;;6.25;73.44
59686;BME280;45554;51.096;16.976;2023-12-20T13:35:03;99396.11;;;6.24;73.49
59686;BME280;45554;51.096;16.976;2023-12-20T13:37:32;99404.45;;;6.24;73.06
59686;BME280;45554;51.096;16.976;2023-12-20T13:40:00;99401.02;;;6.27;72.93
59686;BME280;45554;51.096;16.976;2023-12-20T13:42:28;99395.02;;;6.28;73.23